createdAt,value
2023-11-30T00:00:38.464Z,8.48
2023-11-30T00:03:06.307Z,8.85
2023-11-30T00:05:34.292Z,8.90
2023-11-30T00:08:02.130Z,9.68
2023-11-30T00:10:29.938Z,8.95
2023-11-30T00:12:57.782Z,9.93
2023-11-30T00:15:27.292Z,9.82
2023-11-30T00:17:55.389Z,9.40
2023-11-30T00:20:23.202Z,9.30
2023-11-30T00:22:50.916Z,9.57
2023-11-30T00:25:18.652Z,9.45
2023-11-30T00:27:46.487Z,9.20
2023-11-30T00:30:14.712Z,9.43
2023-11-30T00:32:47.119Z,10.55
2023-11-30T00:35:15.199Z,9.15
2023-11-30T00:37:43.000Z,10.27
2023-11-30T00:40:12.067Z,10.18
2023-11-30T00:42:43.011Z,9.27
2023-11-30T00:45:12.152Z,9.25
2023-11-30T00:47:40.217Z,9.55
2023-11-30T00:50:09.913Z,10.60
2023-11-30T00:52:37.651Z,10.10
2023-11-30T00:55:05.958Z,8.93
2023-11-30T00:57:33.891Z,9.45
2023-11-30T01:00:01.951Z,10.77
2023-11-30T01:02:30.005Z,9.70
2023-11-30T01:04:58.381Z,11.27
2023-11-30T01:07:27.675Z,10.73
2023-11-30T01:09:55.712Z,9.73
2023-11-30T01:12:25.052Z,10.55
2023-11-30T01:14:53.195Z,10.25
2023-11-30T01:17:21.075Z,9.73
2023-11-30T01:19:49.083Z,10.02
2023-11-30T01:22:17.065Z,10.13
2023-11-30T01:24:46.293Z,10.80
2023-11-30T01:27:14.166Z,10.60
2023-11-30T01:29:42.000Z,9.57
2023-11-30T01:32:09.704Z,10.63
2023-11-30T01:34:37.436Z,9.55
2023-11-30T01:37:05.188Z,9.75
2023-11-30T01:39:32.898Z,10.75
2023-11-30T01:42:04.841Z,10.00
2023-11-30T01:44:34.738Z,10.18
2023-11-30T01:47:03.087Z,10.85
2023-11-30T01:49:31.112Z,10.15
2023-11-30T01:51:59.376Z,9.75
2023-11-30T01:54:27.474Z,10.48
2023-11-30T01:56:55.646Z,11.23
2023-11-30T01:59:24.820Z,9.90
2023-11-30T02:01:53.060Z,9.35
2023-11-30T02:04:21.147Z,9.80
2023-11-30T02:06:49.316Z,11.25
2023-11-30T02:09:17.715Z,10.75
2023-11-30T02:11:45.572Z,9.82
2023-11-30T02:14:13.464Z,10.18
2023-11-30T02:16:42.583Z,9.88
2023-11-30T02:19:10.341Z,10.20
2023-11-30T02:21:38.486Z,9.20
2023-11-30T02:24:09.877Z,9.18
2023-11-30T02:26:37.642Z,9.60
2023-11-30T02:29:05.586Z,10.05
2023-11-30T02:31:33.540Z,10.25
2023-11-30T02:34:01.505Z,9.38
2023-11-30T02:36:30.771Z,9.55
2023-11-30T02:38:58.597Z,10.07
2023-11-30T02:41:29.933Z,11.40
2023-11-30T02:43:57.849Z,9.48
2023-11-30T02:46:25.918Z,10.65
2023-11-30T02:48:53.847Z,10.73
2023-11-30T02:51:21.723Z,9.98
2023-11-30T02:53:49.534Z,10.77
2023-11-30T02:56:17.543Z,10.27
2023-11-30T02:58:46.650Z,10.18
2023-11-30T03:01:14.495Z,11.00
2023-11-30T03:03:42.680Z,10.00
2023-11-30T03:06:14.113Z,10.13
2023-11-30T03:08:42.040Z,10.60
2023-11-30T03:11:09.893Z,9.60
2023-11-30T03:13:37.836Z,11.35
2023-11-30T03:16:07.469Z,9.70
2023-11-30T03:18:35.261Z,10.52
2023-11-30T03:21:03.138Z,10.80
2023-11-30T03:23:30.850Z,10.70
2023-11-30T03:25:58.644Z,10.70
2023-11-30T03:28:28.997Z,11.40
2023-11-30T03:30:56.902Z,10.57
2023-11-30T03:33:26.023Z,11.50
2023-11-30T03:35:53.925Z,13.20
2023-11-30T03:38:21.914Z,11.43
2023-11-30T03:40:50.283Z,12.07
2023-11-30T03:43:18.527Z,12.57
2023-11-30T03:45:46.434Z,11.15
2023-11-30T03:48:14.271Z,11.55
2023-11-30T03:50:43.397Z,12.23
2023-11-30T03:53:11.098Z,13.15
2023-11-30T03:55:38.875Z,11.75
2023-11-30T03:58:06.582Z,11.60
2023-11-30T04:00:34.425Z,11.40
2023-11-30T04:03:02.416Z,10.90
2023-11-30T04:05:31.350Z,12.00
2023-11-30T04:08:01.599Z,12.23
2023-11-30T04:10:29.570Z,12.27
2023-11-30T04:12:57.319Z,10.90
2023-11-30T04:15:25.113Z,12.00
2023-11-30T04:17:54.169Z,11.70
2023-11-30T04:20:21.987Z,10.52
2023-11-30T04:22:49.676Z,12.10
2023-11-30T04:25:19.474Z,11.85
2023-11-30T04:27:47.212Z,12.07
2023-11-30T04:30:15.420Z,11.48
2023-11-30T04:32:43.379Z,12.25
2023-11-30T04:35:11.236Z,11.85
2023-11-30T04:37:39.326Z,11.73
2023-11-30T04:40:08.494Z,11.38
2023-11-30T04:42:37.668Z,11.07
2023-11-30T04:45:06.438Z,11.13
2023-11-30T04:47:34.615Z,11.23
2023-11-30T04:50:03.189Z,10.98
2023-11-30T04:52:30.967Z,12.48
2023-11-30T04:54:58.802Z,11.90
2023-11-30T04:57:26.666Z,12.40
2023-11-30T04:59:55.991Z,11.23
2023-11-30T05:02:24.044Z,11.90
2023-11-30T05:04:52.048Z,12.25
2023-11-30T05:07:20.070Z,12.98
2023-11-30T05:09:48.129Z,12.38
2023-11-30T05:12:15.923Z,11.15
2023-11-30T05:14:43.777Z,12.15
2023-11-30T05:17:12.868Z,11.13
2023-11-30T05:19:40.611Z,12.00
2023-11-30T05:22:09.382Z,12.15
2023-11-30T05:24:37.992Z,11.45
2023-11-30T05:27:05.909Z,11.82
2023-11-30T05:29:33.708Z,11.02
2023-11-30T05:32:01.392Z,12.02
2023-11-30T05:34:30.517Z,11.63
2023-11-30T05:36:58.184Z,11.40
2023-11-30T05:39:25.989Z,12.18
2023-11-30T05:41:54.297Z,10.48
2023-11-30T05:44:22.079Z,10.80
2023-11-30T05:46:51.487Z,11.65
2023-11-30T05:49:19.333Z,11.65
2023-11-30T05:51:48.704Z,10.70
2023-11-30T05:54:16.664Z,12.35
2023-11-30T05:56:44.556Z,10.60
2023-11-30T05:59:13.284Z,11.63
2023-11-30T06:01:41.130Z,12.75
2023-11-30T06:04:09.234Z,13.73
2023-11-30T06:06:37.087Z,11.52
2023-11-30T06:09:07.993Z,13.27
2023-11-30T06:11:36.383Z,13.00
2023-11-30T06:14:04.290Z,14.57
2023-11-30T06:16:31.947Z,13.18
2023-11-30T06:18:59.743Z,13.13
2023-11-30T06:21:27.451Z,11.05
2023-11-30T06:23:55.229Z,12.18
2023-11-30T06:26:24.898Z,12.63
2023-11-30T06:28:52.797Z,11.85
2023-11-30T06:31:20.674Z,12.30
2023-11-30T06:33:48.626Z,12.45
2023-11-30T06:36:16.441Z,12.27
2023-11-30T06:38:45.025Z,11.80
2023-11-30T06:41:13.005Z,12.23
2023-11-30T06:43:42.592Z,12.82
2023-11-30T06:46:10.350Z,12.55
2023-11-30T06:48:38.053Z,11.90
2023-11-30T06:51:08.357Z,11.85
2023-11-30T06:53:36.381Z,12.48
2023-11-30T06:56:04.325Z,12.32
2023-11-30T06:58:32.117Z,12.05
2023-11-30T07:01:01.815Z,10.95
2023-11-30T07:03:32.095Z,12.50
2023-11-30T07:06:07.485Z,12.18
2023-11-30T07:08:37.382Z,14.18
2023-11-30T07:11:09.706Z,12.15
2023-11-30T07:13:37.530Z,12.25
2023-11-30T07:16:07.915Z,12.45
2023-11-30T07:18:35.875Z,13.30
2023-11-30T07:21:05.153Z,12.75
2023-11-30T07:23:33.064Z,12.75
2023-11-30T07:26:00.797Z,12.32
2023-11-30T07:28:28.587Z,12.90
2023-11-30T07:30:56.420Z,11.30
2023-11-30T07:33:25.598Z,12.40
2023-11-30T07:35:53.281Z,12.05
2023-11-30T07:38:21.078Z,13.07
2023-11-30T07:40:49.356Z,12.93
2023-11-30T07:43:17.526Z,11.68
2023-11-30T07:45:45.362Z,12.05
2023-11-30T07:48:13.272Z,11.98
2023-11-30T07:50:42.568Z,12.85
2023-11-30T07:53:10.856Z,12.77
2023-11-30T07:55:38.789Z,13.13
2023-11-30T07:58:06.900Z,13.23
2023-11-30T08:00:34.774Z,11.77
2023-11-30T08:03:02.895Z,11.80
2023-11-30T08:05:30.777Z,11.98
2023-11-30T08:07:59.943Z,11.93
2023-11-30T08:10:27.918Z,12.52
2023-11-30T08:12:55.668Z,11.90
2023-11-30T08:15:24.409Z,11.35
2023-11-30T08:17:52.550Z,11.52
2023-11-30T08:20:20.586Z,10.32
2023-11-30T08:22:48.749Z,12.30
2023-11-30T08:25:18.624Z,12.65
2023-11-30T08:27:50.962Z,12.38
2023-11-30T08:30:20.881Z,13.48
2023-11-30T08:32:48.644Z,11.73
2023-11-30T08:35:16.530Z,11.93
2023-11-30T08:37:44.951Z,11.70
2023-11-30T08:40:13.218Z,12.30
2023-11-30T08:42:42.525Z,13.18
2023-11-30T08:45:11.243Z,11.43
2023-11-30T08:47:39.053Z,11.52
2023-11-30T08:50:07.300Z,11.98
2023-11-30T08:52:35.282Z,11.45
2023-11-30T08:55:03.495Z,11.68
2023-11-30T08:57:31.252Z,11.80
2023-11-30T09:00:00.550Z,12.30
2023-11-30T09:02:28.663Z,11.00
2023-11-30T09:04:56.411Z,10.95
2023-11-30T09:07:24.339Z,11.50
2023-11-30T09:09:52.179Z,11.65
2023-11-30T09:12:20.123Z,11.07
2023-11-30T09:14:47.989Z,11.80
2023-11-30T09:17:17.573Z,11.65
2023-11-30T09:19:45.430Z,11.40
2023-11-30T09:22:13.221Z,11.98
2023-11-30T09:24:41.105Z,11.93
2023-11-30T09:27:09.692Z,11.85
2023-11-30T09:29:37.688Z,11.65
2023-11-30T09:32:06.698Z,11.48
2023-11-30T09:34:35.764Z,11.85
2023-11-30T09:37:03.614Z,11.65
2023-11-30T09:39:31.509Z,10.90
2023-11-30T09:42:01.195Z,11.70
2023-11-30T09:44:29.572Z,11.65
2023-11-30T09:46:57.430Z,11.73
2023-11-30T09:49:25.295Z,12.60
2023-11-30T09:51:54.750Z,11.63
2023-11-30T09:54:24.209Z,11.93
2023-11-30T09:56:52.271Z,11.55
2023-11-30T09:59:20.444Z,12.23
2023-11-30T10:01:58.762Z,11.90
2023-11-30T10:04:28.902Z,11.40
2023-11-30T10:06:58.943Z,11.95
2023-11-30T10:09:26.778Z,11.65
2023-11-30T10:11:55.536Z,11.88
2023-11-30T10:14:23.953Z,12.38
2023-11-30T10:16:51.881Z,11.27
2023-11-30T10:19:19.802Z,10.95
2023-11-30T10:21:48.826Z,10.88
2023-11-30T10:24:23.985Z,11.23
2023-11-30T10:26:53.566Z,12.02
2023-11-30T10:29:22.914Z,11.02
2023-11-30T10:31:52.433Z,11.70
2023-11-30T10:34:25.632Z,11.57
2023-11-30T10:36:53.519Z,11.20
2023-11-30T10:39:24.761Z,12.32
2023-11-30T10:41:53.766Z,10.80
2023-11-30T10:44:27.968Z,11.88
2023-11-30T10:46:57.400Z,12.05
2023-11-30T10:49:25.278Z,11.63
2023-11-30T10:51:53.909Z,11.65
2023-11-30T10:54:42.822Z,12.00
2023-11-30T10:57:10.989Z,12.75
2023-11-30T10:59:44.324Z,12.07
2023-11-30T11:02:15.676Z,12.10
2023-11-30T11:04:44.811Z,11.88
2023-11-30T11:07:14.757Z,11.98
2023-11-30T11:09:47.701Z,11.32
2023-11-30T11:12:49.356Z,11.23
2023-11-30T11:15:23.215Z,12.48
2023-11-30T11:17:52.982Z,11.48
2023-11-30T11:20:26.125Z,11.52
2023-11-30T11:22:57.097Z,11.27
2023-11-30T11:25:28.580Z,10.93
2023-11-30T11:27:56.887Z,11.50
2023-11-30T11:30:27.918Z,11.52
2023-11-30T11:32:58.452Z,11.90
2023-11-30T11:35:27.617Z,12.40
2023-11-30T11:37:57.513Z,12.38
2023-11-30T11:40:27.027Z,12.75
2023-11-30T11:42:55.526Z,12.23
2023-11-30T11:45:23.373Z,11.95
2023-11-30T11:47:51.081Z,12.40
2023-11-30T11:50:19.463Z,11.68
2023-11-30T11:52:47.113Z,11.95
2023-11-30T11:55:15.312Z,12.15
2023-11-30T11:57:45.479Z,12.45
2023-11-30T12:00:16.743Z,11.50
2023-11-30T12:02:45.034Z,11.85
2023-11-30T12:05:14.654Z,12.07
2023-11-30T12:07:50.156Z,12.20
2023-11-30T12:10:28.750Z,12.18
2023-11-30T12:12:59.060Z,11.70
2023-11-30T12:15:26.762Z,11.77
2023-11-30T12:17:54.852Z,11.07
2023-11-30T12:20:22.866Z,11.07
2023-11-30T12:22:51.879Z,11.25
2023-11-30T12:25:19.480Z,11.32
2023-11-30T12:27:47.198Z,11.00
2023-11-30T12:30:16.482Z,12.02
2023-11-30T12:32:44.464Z,9.85
2023-11-30T12:35:13.388Z,10.93
2023-11-30T12:37:41.362Z,11.23
2023-11-30T12:40:11.658Z,10.93
2023-11-30T12:42:39.448Z,10.60
2023-11-30T12:45:08.398Z,10.15
2023-11-30T12:47:41.211Z,10.07
2023-11-30T12:50:10.461Z,9.98
2023-11-30T12:52:38.239Z,10.52
2023-11-30T12:55:06.981Z,10.07
2023-11-30T12:57:35.898Z,9.82
2023-11-30T13:00:10.640Z,11.05
2023-11-30T13:02:41.517Z,10.95
2023-11-30T13:05:09.204Z,10.52
2023-11-30T13:07:37.843Z,9.55
2023-11-30T13:10:06.049Z,9.88
2023-11-30T13:12:34.313Z,10.80
2023-11-30T13:15:01.913Z,9.80
2023-11-30T13:17:29.622Z,10.32
2023-11-30T13:19:58.616Z,9.27
2023-11-30T13:22:26.212Z,9.60
2023-11-30T13:24:53.816Z,9.25
2023-11-30T13:27:22.460Z,8.93
2023-11-30T13:29:50.109Z,9.88
2023-11-30T13:32:17.719Z,8.90
2023-11-30T13:34:45.436Z,8.50
2023-11-30T13:37:16.161Z,10.02
2023-11-30T13:39:43.815Z,8.88
2023-11-30T13:42:11.691Z,8.95
2023-11-30T13:44:40.108Z,8.90
2023-11-30T13:47:09.124Z,9.55
2023-11-30T13:49:36.815Z,8.60
2023-11-30T13:52:04.719Z,9.35
2023-11-30T13:54:33.653Z,9.50
2023-11-30T13:57:01.732Z,9.43
2023-11-30T13:59:29.446Z,8.95
2023-11-30T14:01:57.119Z,9.68
2023-11-30T14:04:24.720Z,9.20
2023-11-30T14:06:57.660Z,9.60
2023-11-30T14:09:27.952Z,8.98
2023-11-30T14:11:57.553Z,10.07
2023-11-30T14:14:25.394Z,9.40
2023-11-30T14:16:53.019Z,9.60
2023-11-30T14:19:20.682Z,9.23
2023-11-30T14:21:48.333Z,8.77
2023-11-30T14:24:16.697Z,9.32
2023-11-30T14:26:44.335Z,9.85
2023-11-30T14:29:13.277Z,8.63
2023-11-30T14:31:40.891Z,9.40
2023-11-30T14:34:08.528Z,9.52
2023-11-30T14:36:36.253Z,9.35
2023-11-30T14:39:04.940Z,9.55
2023-11-30T14:41:32.611Z,10.15
2023-11-30T14:44:00.297Z,9.20
2023-11-30T14:46:29.341Z,9.05
2023-11-30T14:48:57.097Z,10.48
2023-11-30T14:51:24.810Z,9.73
2023-11-30T14:53:52.492Z,9.43
2023-11-30T14:56:21.380Z,9.48
2023-11-30T14:58:48.981Z,9.82
2023-11-30T15:01:16.761Z,9.55
2023-11-30T15:03:46.880Z,9.38
2023-11-30T15:06:14.743Z,10.73
2023-11-30T15:08:42.364Z,10.40
2023-11-30T15:11:10.217Z,10.00
2023-11-30T15:13:37.828Z,10.15
2023-11-30T15:16:06.183Z,10.02
2023-11-30T15:18:33.948Z,10.52
2023-11-30T15:21:03.240Z,9.52
2023-11-30T15:23:31.215Z,9.60
2023-11-30T15:25:58.797Z,10.85
2023-11-30T15:28:26.377Z,9.77
2023-11-30T15:30:54.258Z,10.27
2023-11-30T15:33:21.990Z,9.63
2023-11-30T15:35:49.554Z,10.77
2023-11-30T15:38:19.466Z,10.90
2023-11-30T15:40:47.340Z,10.68
2023-11-30T15:43:14.955Z,11.27
2023-11-30T15:45:42.818Z,11.02
2023-11-30T15:48:10.912Z,9.98
2023-11-30T15:50:38.663Z,10.32
2023-11-30T15:53:06.685Z,11.48
2023-11-30T15:55:35.677Z,10.77
2023-11-30T15:58:05.197Z,10.60
2023-11-30T16:00:32.935Z,10.77
2023-11-30T16:03:01.478Z,10.65
2023-11-30T16:05:30.054Z,10.98
2023-11-30T16:07:57.869Z,10.15
2023-11-30T16:10:26.772Z,10.40
2023-11-30T16:12:55.867Z,10.57
2023-11-30T16:15:25.671Z,10.98
2023-11-30T16:17:53.635Z,10.50
2023-11-30T16:20:21.374Z,11.40
2023-11-30T16:22:49.412Z,11.48
2023-11-30T16:25:17.208Z,10.40
2023-11-30T16:27:44.964Z,10.15
2023-11-30T16:30:14.740Z,11.90
2023-11-30T16:32:42.454Z,11.55
2023-11-30T16:35:10.714Z,13.20
2023-11-30T16:37:38.830Z,12.52
2023-11-30T16:40:08.392Z,12.13
2023-11-30T16:42:36.791Z,13.23
2023-11-30T16:45:05.254Z,12.82
2023-11-30T16:47:34.633Z,12.50
2023-11-30T16:50:04.280Z,13.27
2023-11-30T16:52:32.146Z,13.48
2023-11-30T16:54:59.816Z,12.38
2023-11-30T16:57:32.925Z,14.27
2023-11-30T17:02:29.032Z,13.38
2023-11-30T17:04:58.118Z,12.98
2023-11-30T17:07:25.971Z,13.15
2023-11-30T17:09:53.693Z,12.77
2023-11-30T17:12:22.759Z,13.32
2023-11-30T17:14:50.997Z,13.20
2023-11-30T17:17:18.980Z,12.60
2023-11-30T17:19:46.968Z,12.52
2023-11-30T17:22:16.419Z,12.45
2023-11-30T17:24:44.491Z,13.30
2023-11-30T17:27:13.894Z,13.48
2023-11-30T17:29:42.819Z,12.85
2023-11-30T17:32:11.496Z,13.57
2023-11-30T17:34:39.518Z,13.05
2023-11-30T17:37:09.565Z,13.15
2023-11-30T17:39:38.958Z,13.80
2023-11-30T17:42:07.236Z,12.95
2023-11-30T17:44:35.086Z,12.90
2023-11-30T17:47:02.812Z,12.70
2023-11-30T17:49:30.862Z,12.15
2023-11-30T17:51:58.720Z,12.35
2023-11-30T17:54:26.404Z,11.80
2023-11-30T17:56:55.437Z,12.30
2023-11-30T17:59:23.053Z,13.85
2023-11-30T18:01:50.666Z,12.65
2023-11-30T18:04:18.361Z,12.20
2023-11-30T18:06:46.001Z,13.07
2023-11-30T18:09:13.688Z,12.25
2023-11-30T18:11:41.640Z,13.15
2023-11-30T18:14:11.805Z,13.57
2023-11-30T18:16:39.458Z,12.30
2023-11-30T18:19:07.085Z,12.82
2023-11-30T18:21:35.053Z,12.27
2023-11-30T18:24:02.935Z,13.00
2023-11-30T18:26:30.648Z,12.07
2023-11-30T18:28:58.350Z,12.98
2023-11-30T18:31:27.684Z,11.82
2023-11-30T18:33:55.454Z,12.52
2023-11-30T18:36:23.220Z,11.38
2023-11-30T18:38:52.105Z,11.40
2023-11-30T18:41:20.333Z,12.38
2023-11-30T18:43:47.977Z,12.43
2023-11-30T18:46:16.289Z,14.10
2023-11-30T18:48:46.451Z,13.10
2023-11-30T18:51:14.137Z,12.25
2023-11-30T18:53:41.988Z,13.07
2023-11-30T18:56:10.406Z,13.07
2023-11-30T18:58:39.544Z,13.48
2023-11-30T19:01:07.472Z,11.98
2023-11-30T19:03:35.999Z,12.13
2023-11-30T19:06:05.626Z,12.43
2023-11-30T19:08:33.461Z,12.07
2023-11-30T19:11:01.263Z,12.00
2023-11-30T19:13:29.222Z,10.90
2023-11-30T19:15:56.909Z,12.85
2023-11-30T19:18:24.738Z,12.60
2023-11-30T19:20:52.463Z,13.63
2023-11-30T19:23:21.439Z,13.00
2023-11-30T19:25:49.061Z,11.82
2023-11-30T19:28:16.632Z,11.98
2023-11-30T19:30:44.301Z,12.35
2023-11-30T19:33:12.442Z,12.15
2023-11-30T19:35:40.199Z,12.85
2023-11-30T19:38:07.918Z,13.95
2023-11-30T19:40:36.828Z,14.48
2023-11-30T19:43:04.603Z,15.98
2023-11-30T19:45:32.230Z,14.00
2023-11-30T19:48:00.022Z,14.18
2023-11-30T19:50:28.676Z,15.43
2023-11-30T19:52:56.271Z,13.75
2023-11-30T19:55:24.175Z,14.07
2023-11-30T19:57:53.087Z,13.70
2023-11-30T20:00:20.789Z,12.65
2023-11-30T20:02:48.700Z,11.70
2023-11-30T20:05:17.297Z,11.00
2023-11-30T20:07:46.267Z,12.15
2023-11-30T20:10:13.903Z,11.63
2023-11-30T20:12:42.768Z,11.45
2023-11-30T20:15:11.968Z,11.52
2023-11-30T20:17:39.890Z,11.30
2023-11-30T20:20:08.609Z,11.48
2023-11-30T20:22:36.252Z,11.75
2023-11-30T20:25:04.023Z,11.20
2023-11-30T20:27:31.761Z,11.75
2023-11-30T20:29:59.475Z,11.80
2023-11-30T20:32:28.475Z,11.85
2023-11-30T20:34:56.111Z,11.70
2023-11-30T20:37:25.895Z,12.63
2023-11-30T20:39:53.947Z,11.95
2023-11-30T20:42:21.701Z,11.48
2023-11-30T20:44:53.129Z,11.15
2023-11-30T20:47:22.357Z,11.15
2023-11-30T20:49:51.716Z,11.85
2023-11-30T20:52:19.886Z,11.23
2023-11-30T20:54:48.393Z,11.55
2023-11-30T20:57:16.882Z,12.02
2023-11-30T20:59:44.512Z,12.50
2023-11-30T21:02:13.973Z,12.23
2023-11-30T21:04:41.782Z,11.68
2023-11-30T21:07:12.090Z,12.55
2023-11-30T21:09:39.809Z,12.60
2023-11-30T21:12:08.411Z,12.45
2023-11-30T21:14:36.036Z,11.45
2023-11-30T21:17:34.876Z,12.07
2023-11-30T21:20:03.191Z,12.93
2023-11-30T21:22:32.794Z,13.52
2023-11-30T21:25:00.513Z,12.95
2023-11-30T21:27:28.211Z,12.82
2023-11-30T21:29:55.859Z,13.80
2023-11-30T21:32:23.447Z,12.05
2023-11-30T21:34:51.025Z,11.88
2023-11-30T21:37:18.745Z,12.32
2023-11-30T21:39:47.648Z,12.23
2023-11-30T21:42:15.343Z,12.35
2023-11-30T21:44:43.554Z,13.00
2023-11-30T21:47:13.088Z,11.75
2023-11-30T21:49:41.551Z,12.18
2023-11-30T21:52:09.218Z,12.10
2023-11-30T21:54:36.907Z,12.52
2023-11-30T21:57:06.177Z,12.32
2023-11-30T21:59:37.555Z,11.50
2023-11-30T22:02:05.813Z,10.75
2023-11-30T22:04:33.808Z,10.80
2023-11-30T22:07:01.794Z,12.63
2023-11-30T22:09:29.937Z,11.85
2023-11-30T22:11:58.143Z,12.80
2023-11-30T22:14:27.216Z,12.07
2023-11-30T22:16:55.316Z,11.95
2023-11-30T22:19:23.056Z,11.70
2023-11-30T22:21:50.752Z,12.57
2023-11-30T22:24:18.636Z,11.77
2023-11-30T22:26:46.262Z,12.00
2023-11-30T22:29:13.898Z,11.93
2023-11-30T22:31:42.835Z,12.23
2023-11-30T22:34:10.516Z,11.15
2023-11-30T22:36:38.260Z,12.20
2023-11-30T22:39:05.852Z,11.45
2023-11-30T22:41:33.524Z,12.25
2023-11-30T22:44:01.153Z,11.55
2023-11-30T22:46:28.900Z,11.55
2023-11-30T22:48:57.898Z,12.40
2023-11-30T22:51:25.671Z,11.65
2023-11-30T22:53:53.311Z,11.95
2023-11-30T22:56:26.271Z,11.68
2023-11-30T23:01:22.090Z,11.27
2023-11-30T23:03:50.077Z,11.20
2023-11-30T23:06:19.212Z,12.18
2023-11-30T23:08:47.138Z,11.45
2023-11-30T23:11:14.784Z,12.10
2023-11-30T23:13:42.377Z,11.45
2023-11-30T23:16:12.389Z,11.48
2023-11-30T23:18:40.539Z,11.60
2023-11-30T23:21:08.638Z,11.93
2023-11-30T23:23:37.579Z,12.60
2023-11-30T23:26:05.700Z,11.88
2023-11-30T23:28:33.796Z,10.88
2023-11-30T23:31:01.610Z,11.07
2023-11-30T23:33:29.307Z,11.40
2023-11-30T23:35:56.990Z,11.55
2023-11-30T23:38:24.905Z,12.70
2023-11-30T23:40:53.860Z,12.82
2023-11-30T23:43:21.534Z,11.07
2023-11-30T23:45:49.164Z,12.00
2023-11-30T23:48:16.833Z,10.80
2023-11-30T23:50:44.435Z,12.35
2023-11-30T23:53:12.026Z,11.73
2023-11-30T23:55:39.614Z,12.18
2023-11-30T23:58:08.606Z,11.73
